Bay Area Logo

Santa Clara, CA Single Family Real Estate Listings

142 Total Real Estate Listings * Click on table heading to sort
Date Posted Property Type Style Address Price Living Area Lot Size Price/Sq Ft.
2018-08-14 Single Family 2318 Gianera Street Santa Clara, CA 95054 $1,450,000 1,922 sq. ft. 3,920 sq. ft. $754
2018-08-13 Single Family 2612 Monticello Way Santa Clara, CA 95051 $1,150,000 1,095 sq. ft. 6,970 sq. ft. $1,050
2018-08-13 Single Family Contemporary 677 Flannery Street Santa Clara, CA 95051 $1,299,890 1,336 sq. ft. 5,227 sq. ft. $973
2018-08-12 Single Family 2354 Fatjo Place Santa Clara, CA 95050 $1,295,000 1,369 sq. ft. 6,098 sq. ft. $946
2018-08-10 Single Family 3567 Brothers Lane Santa Clara, CA 95051 $2,348,000 2,482 sq. ft. 3,485 sq. ft. $946
2018-08-10 Single Family 2619 Castello Way Santa Clara, CA 95051 $1,399,000 1,095 sq. ft. 7,405 sq. ft. $1,278
2018-08-10 Single Family 2344 Arguello Place Santa Clara, CA 95050 $1,599,000 1,488 sq. ft. 6,534 sq. ft. $1,075
2018-08-09 Single Family 3820 De La Cruz Boulevard Santa Clara, CA 95054 $1,588,000 2,421 sq. ft. 8,712 sq. ft. $656
2018-08-09 Single Family 2085 Clark Santa Clara, CA 95051 $1,898,000 2,620 sq. ft. 6,970 sq. ft. $724
2018-08-08 Single Family 2261 Rita Court Santa Clara, CA 95050 $1,090,000 1,075 sq. ft. 6,098 sq. ft. $1,014
2018-08-08 Single Family Contemporary 902 Hargis Way Santa Clara, CA 95054 $1,888,000 2,128 sq. ft. 3,049 sq. ft. $887
2018-08-05 Single Family 652 Bucher Avenue Santa Clara, CA 95051 $1,549,950 1,970 sq. ft. 6,534 sq. ft. $787
2018-08-04 Single Family Contemporary; Fixer-Handyman Special 4516 Lakeshore Dr Santa Clara, CA 95054 $1,200,000 1,850 sq. ft. 6,970 sq. ft. $649
2018-08-01 Single Family 2349 Thompson Place Santa Clara, CA 95050 $1,225,000 1,021 sq. ft. 6,098 sq. ft. $1,200
2018-08-01 Single Family 3009 Agate Drive Santa Clara, CA 95051 $899,000 897 sq. ft. 6,534 sq. ft. $1,002
2018-07-27 Single Family Contemporary 1865 Washington Street Santa Clara, CA 95050 $995,000 1,155 sq. ft. 6,098 sq. ft. $861
2018-07-26 Single Family Contemporary 1055 Helen Avenue Santa Clara, CA 95051 $1,898,000 2,227 sq. ft. 1,742 sq. ft. $852
2018-07-25 Single Family Spanish 640 Hilmar Street Santa Clara, CA 95050 $1,299,950 1,522 sq. ft. 4,792 sq. ft. $854
2018-07-25 Single Family 2043 Pruneridge Avenue Santa Clara, CA 95050 $1,398,000 1,584 sq. ft. 10,454 sq. ft. $883
2018-07-25 Single Family Traditional 1680 Los Padres Boulevard Santa Clara, CA 95050 $1,349,950 1,290 sq. ft. 6,534 sq. ft. $1,046
2018-07-25 Single Family 2131 San Rafael Avenue Santa Clara, CA 95051 $1,288,890 1,078 sq. ft. 5,227 sq. ft. $1,196
2018-07-25 Single Family 1850 Briarwood Drive Santa Clara, CA 95051 $1,599,890 1,608 sq. ft. 5,663 sq. ft. $995
2018-07-24 Single Family 2456 Franciscan Court Santa Clara, CA 95051 $1,550,000 1,836 sq. ft. 8,712 sq. ft. $844
2018-07-24 Single Family 2360 Raggio Avenue Santa Clara, CA 95050 $1,548,890 1,662 sq. ft. 6,534 sq. ft. $932
2018-07-24 Single Family Ranch 2211 De Paul Place Santa Clara, CA 95051 $1,475,000 1,864 sq. ft. 8,712 sq. ft. $791
2018-07-24 Single Family 665 Hamilton Lane Santa Clara, CA 95051 $1,298,000 1,127 sq. ft. 5,227 sq. ft. $1,152
2018-07-23 Single Family 396 Sloat Court Santa Clara, CA 95051 $1,698,800 1,513 sq. ft. 6,534 sq. ft. $1,123
2018-07-23 Single Family 1892 Homestead Road Santa Clara, CA 95050 $1,685,000 1,506 sq. ft. 11,761 sq. ft. $1,119
2018-07-23 Single Family Ranch 1019 Leith Avenue Santa Clara, CA 95054 $1,149,000 1,543 sq. ft. 6,534 sq. ft. $745
2018-07-20 Single Family Contemporary 795 Orkney Avenue Santa Clara, CA 95054 $1,599,000 2,566 sq. ft. 7,405 sq. ft. $623
2018-07-20 Single Family Contemporary 1865 Washington Street Santa Clara, CA 95050 $995,000 1,155 sq. ft. 6,098 sq. ft. $861
2018-07-19 Single Family 2006 Stanley Avenue Santa Clara, CA 95050 $1,298,000 1,048 sq. ft. 6,534 sq. ft. $1,239
2018-07-19 Single Family 1992 Bowers Avenue Santa Clara, CA 95051 $1,368,000 1,158 sq. ft. 5,663 sq. ft. $1,181
2018-07-19 Single Family 683 Starr Court Santa Clara, CA 95051 $1,495,000 1,145 sq. ft. 5,663 sq. ft. $1,306
2018-07-19 Single Family Contemporary 3151 Via Siena Place Santa Clara, CA 95051 $1,500,000 1,961 sq. ft. 1,742 sq. ft. $765
2018-07-19 Single Family Contemporary; Farm House 1217 Harrison Street Santa Clara, CA 95050 $1,589,000 1,816 sq. ft. 5,663 sq. ft. $875
2018-07-19 Single Family 2293 Talia Avenue Santa Clara, CA 95050 $1,498,880 1,080 sq. ft. 7,405 sq. ft. $1,388
2018-07-18 Single Family 3024 Alexander Avenue Santa Clara, CA 95051 $1,688,000 1,757 sq. ft. 6,098 sq. ft. $961
2018-07-18 Single Family 322 Madrone Avenue Santa Clara, CA 95051 $1,798,000 1,749 sq. ft. 8,712 sq. ft. $1,028
2018-07-18 Single Family 3536 Golden State Drive Santa Clara, CA 95051 $1,049,000 1,166 sq. ft. 5,227 sq. ft. $900
2018-07-18 Single Family Mediterranean 67 Cabot Avenue Santa Clara, CA 95051 $1,488,000 2,157 sq. ft. 1,742 sq. ft. $690
2018-07-18 Single Family Contemporary 2037 Jamison Place Santa Clara, CA 95051 $1,498,000 2,094 sq. ft. 1,742 sq. ft. $715
2018-07-18 Single Family 642 Flannery Street Santa Clara, CA 95051 $1,348,890 1,127 sq. ft. 5,227 sq. ft. $1,197
2018-07-18 Single Family 3572 Gibson Avenue Santa Clara, CA 95051 $1,400,000 1,800 sq. ft. 6,534 sq. ft. $778
2018-07-17 Single Family 564 Chapman Court Santa Clara, CA 95050 $1,198,000 1,170 sq. ft. 2,614 sq. ft. $1,024
2018-07-17 Single Family 2094 Main Street Santa Clara, CA 95050 $1,368,000 1,484 sq. ft. 8,712 sq. ft. $922
2018-07-17 Single Family Ranch 242 Maria Street Santa Clara, CA 95050 $1,099,000 1,075 sq. ft. 7,405 sq. ft. $1,022
2018-07-17 Single Family 823 Monroe Street Santa Clara, CA 95050 $1,399,950 2,068 sq. ft. 5,663 sq. ft. $677
2018-07-17 Single Family Contemporary; Ranch 2214 Homestead Road Santa Clara, CA 95050 $1,838,890 2,606 sq. ft. 6,970 sq. ft. $706
2018-07-17 Single Family 2177 Augusta Place Santa Clara, CA 95051 $1,198,000 1,095 sq. ft. 6,098 sq. ft. $1,094
2018-07-13 Single Family Contemporary 1426 Newhall Street Santa Clara, CA 95050 $1,299,950 1,412 sq. ft. 8,712 sq. ft. $921
2018-07-13 Single Family Ranch 3374 Gonzaga Pl Santa Clara, CA 95051 $1,450,000 1,332 sq. ft. 6,534 sq. ft. $1,089
2018-07-12 Single Family Ranch 3374 Gonzaga Place Santa Clara, CA 95051 $1,450,000 1,332 sq. ft. 6,534 sq. ft. $1,089
2018-07-12 Single Family Contemporary 3802 Mark Spitz Place Santa Clara, CA 95051 $1,748,000 2,050 sq. ft. 1,742 sq. ft. $853
2018-07-11 Single Family Traditional 2609 Elliot Street Santa Clara, CA 95051 $1,488,000 1,315 sq. ft. 6,098 sq. ft. $1,132
2018-07-11 Single Family 2359 Brown Avenue Santa Clara, CA 95051 $1,398,000 1,095 sq. ft. 6,970 sq. ft. $1,277
2018-07-11 Single Family 3417 Cooper Drive Santa Clara, CA 95051 $1,600,000 1,874 sq. ft. 6,534 sq. ft. $854
2018-07-11 Single Family Ranch 3447 Bella Vista Avenue Santa Clara, CA 95051 $1,298,890 1,212 sq. ft. 6,098 sq. ft. $1,072
2018-07-09 Single Family Ranch 2221 Sutter Avenue Santa Clara, CA 95050 $1,495,000 1,350 sq. ft. 6,534 sq. ft. $1,107
2018-07-03 Single Family 3330 Cecil Avenue Santa Clara, CA 95050 $1,519,000 1,410 sq. ft. 10,019 sq. ft. $1,077
2018-06-28 Single Family 1295 Chapel Drive Santa Clara, CA 95050 $1,250,000 1,367 sq. ft. 6,098 sq. ft. $914
2018-06-27 Single Family 2657 Barcells Avenue Santa Clara, CA 95051 $1,499,950 1,335 sq. ft. 5,663 sq. ft. $1,124
2018-06-27 Single Family 2440 Benton Street Santa Clara, CA 95051 $1,250,000 1,134 sq. ft. 6,534 sq. ft. $1,102
2018-06-27 Single Family 2682 Wallace Street Santa Clara, CA 95051 $1,405,000 1,602 sq. ft. 6,098 sq. ft. $877
2018-06-26 Single Family 631 Woodhams Road Santa Clara, CA 95051 $1,599,000 2,067 sq. ft. 6,534 sq. ft. $774
2018-06-22 Single Family Victorian 1809 Henning Place Santa Clara, CA 95050 $1,299,000 1,960 sq. ft. 3,049 sq. ft. $663
2018-06-22 Single Family Ranch 445 Cypress Avenue Santa Clara, CA 95050 $1,338,800 1,075 sq. ft. 6,098 sq. ft. $1,245
2018-06-20 Single Family 1767 Pomeroy Avenue Santa Clara, CA 95051 $1,649,890 1,464 sq. ft. 5,227 sq. ft. $1,127
2018-06-20 Single Family 4668 Wilcox Avenue Santa Clara, CA 95054 $1,348,000 1,685 sq. ft. 2,178 sq. ft. $800
2018-06-20 Single Family Contemporary 2301 Alcalde Street Santa Clara, CA 95054 $1,650,000 2,326 sq. ft. 3,485 sq. ft. $709
2018-06-19 Single Family Traditional 991 Fairfield Avenue Santa Clara, CA 95050 $1,499,000 1,602 sq. ft. 7,841 sq. ft. $936
2018-06-19 Single Family 1687 Roll Street Santa Clara, CA 95050 $1,599,000 1,427 sq. ft. 6,534 sq. ft. $1,121
2018-06-18 Single Family 1196 Phillips Court Santa Clara, CA 95051 $1,365,000 1,000 sq. ft. 5,663 sq. ft. $1,365
2018-06-14 Single Family 2892 Sycamore Way Santa Clara, CA 95051 $1,799,000 1,749 sq. ft. 11,761 sq. ft. $1,029
2018-06-13 Single Family 189 Gilbert Avenue Santa Clara, CA 95051 $2,088,890 1,820 sq. ft. 8,712 sq. ft. $1,148
2018-06-13 Single Family 1445 Pomeroy Avenue Santa Clara, CA 95051 $1,494,890 2,300 sq. ft. 11,761 sq. ft. $650
2018-06-11 Single Family 861 Clyde Avenue Santa Clara, CA 95054 $1,088,000 1,314 sq. ft. 7,405 sq. ft. $828
2018-06-11 Single Family 2554 Elliot Court Santa Clara, CA 95051 $1,299,000 1,191 sq. ft. 6,970 sq. ft. $1,091
2018-06-08 Single Family Ranch 431 Lowell Drive Santa Clara, CA 95051 $1,849,000 1,350 sq. ft. 9,148 sq. ft. $1,370
2018-06-07 Single Family 245 Monroe Street Santa Clara, CA 95050 $1,450,000 1,344 sq. ft. 8,712 sq. ft. $1,079
2018-06-05 Single Family English; Tudor 2390 Park Avenue Santa Clara, CA 95050 $2,399,000 3,338 sq. ft. 12,197 sq. ft. $719
2018-05-30 Single Family 208 Cronin Drive Santa Clara, CA 95051 $1,698,890 1,388 sq. ft. 7,841 sq. ft. $1,224
2018-05-29 Single Family Victorian 1516 Homestead Road Santa Clara, CA 95050 $1,650,000 2,300 sq. ft. 6,098 sq. ft. $717
2018-05-17 Single Family Ranch 4626 Lakeshore Drive Santa Clara, CA 95054 $1,359,950 1,584 sq. ft. 6,098 sq. ft. $859
2018-05-16 Single Family 575 Winchester Boulevard Santa Clara, CA 95050 $1,798,000 2,679 sq. ft. 6,534 sq. ft. $671
2018-05-15 Single Family 610 Harrison Street Santa Clara, CA 95050 $1,449,000 2,129 sq. ft. 8,276 sq. ft. $681
2018-05-15 Single Family Contemporary 902 Pomeroy Avenue Santa Clara, CA 95051 $1,895,000 2,430 sq. ft. 4,356 sq. ft. $780
2018-05-13 Single Family Ranch 2820 Pruneridge Avenue Santa Clara, CA 95051 $1,950,000 2,059 sq. ft. 8,712 sq. ft. $947
2018-05-11 Single Family 1545 Walnut Grove Avenue Santa Clara, CA 95050 $1,190,000 1,100 sq. ft. 6,098 sq. ft. $1,082
2018-05-10 Single Family 2525 Armstrong Place Santa Clara, CA 95050 $900,000 1,340 sq. ft. 8,276 sq. ft. $672
2018-05-10 Single Family Ranch 1165 Pomeroy Avenue Santa Clara, CA 95051 $1,295,000 1,208 sq. ft. 6,970 sq. ft. $1,072
2018-03-09 Single Family Spanish 1530 Alviso Street Santa Clara, CA 95050 $1,375,000 1,361 sq. ft. 2,614 sq. ft. $1,010
2018-03-09 Single Family Spanish 840 Civic Center Drive Santa Clara, CA 95050 $1,550,000 1,805 sq. ft. 2,614 sq. ft. $859
2018-03-09 Single Family Spanish 830 Civic Center Drive Santa Clara, CA 95050 $1,550,000 1,890 sq. ft. 3,485 sq. ft. $820
2017-06-21 Single Family 928 Madeline Ln Santa Clara, CA 95050 $998,000 1,156 sq. ft. 5,776 sq. ft. $863
2017-06-21 Single Family Ranch 370 Crestview Dr Santa Clara, CA 95050 $1,065,000 1,469 sq. ft. 7,318 sq. ft. $725
2017-06-19 Single Family 793 Park Ct Santa Clara, CA 95050 $1,049,000 1,357 sq. ft. 5,001 sq. ft. $773
2017-06-19 Single Family Contemporary; Ranch 190 Arcadia Ave Santa Clara, CA 95051 $2,175,000 2,432 sq. ft. 8,102 sq. ft. $894
2017-06-15 Single Family Contemporary 833 Laurie Ave Santa Clara, CA 95054 $988,000 1,537 sq. ft. 5,022 sq. ft. $643
2017-06-15 Single Family Contemporary 2321 Talia Ave Santa Clara, CA 95050 $949,900 1,035 sq. ft. 5,702 sq. ft. $918
2017-06-15 Single Family 3136 San Juan Ave Santa Clara, CA 95051 $1,260,000 1,592 sq. ft. 5,719 sq. ft. $791
2017-06-15 Single Family 2579 Borax Dr Santa Clara, CA 95051 $1,180,000 1,396 sq. ft. 5,301 sq. ft. $845
2017-06-14 Single Family 2251 Bohannon Dr Santa Clara, CA 95050 $1,189,000 1,125 sq. ft. 5,702 sq. ft. $1,057
2017-06-14 Single Family 731 San Miguel Ave Santa Clara, CA 95050 $1,398,000 1,825 sq. ft. 5,942 sq. ft. $766
2017-06-14 Single Family Eichler 2509 Hayward Dr Santa Clara, CA 95051 $1,050,000 1,166 sq. ft. 5,406 sq. ft. $901
2017-06-14 Single Family 630 Hamilton Santa Clara, CA 95051 $1,088,000 1,092 sq. ft. 5,001 sq. ft. $996
2017-06-13 Single Family 3155 Warburton Ave Santa Clara, CA 95051 $1,049,000 1,170 sq. ft. 5,554 sq. ft. $897
2017-06-13 Single Family 943 Wren Ct Santa Clara, CA 95051 $2,200,000 2,533 sq. ft. 4,321 sq. ft. $869
2017-06-13 Single Family 963 Wren Ct Santa Clara, CA 95051 $2,350,000 2,662 sq. ft. 4,082 sq. ft. $883
2017-06-13 Single Family 1083 Portola Ave Santa Clara, CA 95050 $949,000 966 sq. ft. 3,742 sq. ft. $982
2017-06-13 Single Family 261 Madrone Ave Santa Clara, CA 95051 $1,700,000 1,837 sq. ft. 7,475 sq. ft. $925
2017-06-13 Single Family Ranch 2312 Bohannon Dr Santa Clara, CA 95050 $1,050,000 1,307 sq. ft. 5,702 sq. ft. $803
2017-06-08 Single Family 1898 Fairway Glen Dr Santa Clara, CA 95054 $1,049,000 1,236 sq. ft. 2,156 sq. ft. $849
2017-06-07 Single Family 1320 Via Dondera Santa Clara, CA 95051 $1,100,000 1,658 sq. ft. 6,146 sq. ft. $663
2017-06-06 Single Family Benton St Santa Clara, CA 95050 $748,000 1,004 sq. ft. 6,599 sq. ft. $745
2017-06-06 Single Family 966 Wren Ct Santa Clara, CA 95051 $2,250,000 2,648 sq. ft. 3,594 sq. ft. $850
2017-06-06 Single Family 976 Wren Ct Santa Clara, CA 95051 $2,400,000 2,981 sq. ft. 5,937 sq. ft. $805
2017-06-06 Single Family 3553 Gibson Ct Santa Clara, CA 95051 $1,988,890 2,304 sq. ft. 7,797 sq. ft. $863
2017-06-03 Single Family 3526 Benton St Santa Clara, CA 95051 $1,039,950 1,166 sq. ft. 5,009 sq. ft. $892
2017-06-03 Single Family Contemporary 3368 Soares Ct Santa Clara, CA 95051 $1,500,000 2,261 sq. ft. 9,975 sq. ft. $663
2017-06-01 Single Family Craftsman 1256 Pierce St Santa Clara, CA 95050 $1,288,890 2,374 sq. ft. 5,053 sq. ft. $543
2017-05-31 Single Family 2380 Homestead Rd 2101 Santa Clara, CA 95050 $945,000 1,630 sq. ft. 1,612 sq. ft. $580
2017-05-31 Single Family 1210 Lincoln St Santa Clara, CA 95050 $1,179,000 1,705 sq. ft. 6,142 sq. ft. $692
2017-05-30 Single Family 752 Scott Blvd Santa Clara, CA 95050 $828,900 1,830 sq. ft. 7,275 sq. ft. $453
2017-05-26 Single Family 3039 Agate Dr Santa Clara, CA 95051 $799,888 897 sq. ft. 5,924 sq. ft. $892
2017-05-26 Single Family 1465 Merrill Pl Santa Clara, CA 95051 $1,159,900 1,861 sq. ft. 1,830 sq. ft. $623
2017-05-26 Single Family 1828 Clay St Santa Clara, CA 95050 $950,000 1,046 sq. ft. 4,792 sq. ft. $908
2017-05-25 Single Family 3477 Warburton Ave Santa Clara, CA 95051 $1,148,000 1,195 sq. ft. 5,053 sq. ft. $961
2017-05-20 Single Family 2087 Hoover Dr Santa Clara, CA 95051 $1,549,000 1,990 sq. ft. 5,358 sq. ft. $778
2017-05-19 Single Family Ranch 653 Los Olivos Drive Santa Clara, CA 95050 $1,249,000 1,862 sq. ft. 5,445 sq. ft. $671
2017-05-17 Single Family 3555 Sunnydays Ln Santa Clara, CA 95051 $1,270,000 1,846 sq. ft. 2,701 sq. ft. $688
2017-05-17 Single Family 2035 Main St Santa Clara, CA 95050 $875,000 1,144 sq. ft. 7,797 sq. ft. $765
2017-05-16 Single Family Vintage 2200 Park Ave Santa Clara, CA 95050 $899,500 1,100 sq. ft. 5,140 sq. ft. $818
2017-05-12 Single Family Ranch 3318 Granada Ave Santa Clara, CA 95051 $1,149,950 1,565 sq. ft. 5,009 sq. ft. $735
2017-05-11 Single Family Bungalow 1425 Harrison St Santa Clara, CA 95050 $924,950 1,089 sq. ft. 5,097 sq. ft. $849
2017-05-10 Single Family Ranch; Traditional 755 Los Olivos Dr Santa Clara, CA 95050 $899,000 1,059 sq. ft. 5,401 sq. ft. $849
2017-05-09 Single Family 1337 Kiely Blvd Santa Clara, CA 95051 $949,950 1,626 sq. ft. 5,314 sq. ft. $584
2017-04-10 Single Family 2410 Marmon Ct Santa Clara, CA 95051 $1,699,950 3,424 sq. ft. 10,019 sq. ft. $496
2017-03-28 Single Family Ranch 746 College Ave Santa Clara, CA 95050 $1,599,000 2,106 sq. ft. 12,589 sq. ft. $759
2017-03-13 Single Family 1882 Homestead Rd Santa Clara, CA 95050 $1,399,950 2,175 sq. ft. 11,195 sq. ft. $644
2017-02-09 Single Family Contemporary Forbes Ave Santa Clara, CA 95050 $1,360,000 2,782 sq. ft. 5,619 sq. ft. $489
2016-09-25 Single Family 1095 Madison St Santa Clara, CA 95050 $1,399,000 1,904 sq. ft. 6,011 sq. ft. $735